sensor_id;sensor_type;location;lat;lon;timestamp;pressure;altitude;pressure_sealevel;temperature
48854;BMP280;34673;52.808;17.856;2023-06-10T00:01:20;100409.78;;;20.87
48854;BMP280;34673;52.808;17.856;2023-06-10T00:03:47;100422.69;;;20.92
48854;BMP280;34673;52.808;17.856;2023-06-10T00:06:15;100412.50;;;20.86
48854;BMP280;34673;52.808;17.856;2023-06-10T00:08:42;100415.75;;;20.91
48854;BMP280;34673;52.808;17.856;2023-06-10T00:11:09;100422.84;;;20.89
48854;BMP280;34673;52.808;17.856;2023-06-10T00:13:37;100420.38;;;20.86
48854;BMP280;34673;52.808;17.856;2023-06-10T00:16:04;100422.38;;;20.80
48854;BMP280;34673;52.808;17.856;2023-06-10T00:18:31;100423.59;;;20.73
48854;BMP280;34673;52.808;17.856;2023-06-10T00:20:59;100422.22;;;20.66
48854;BMP280;34673;52.808;17.856;2023-06-10T00:23:31;100418.97;;;20.61
48854;BMP280;34673;52.808;17.856;2023-06-10T00:25:58;100424.53;;;20.55
48854;BMP280;34673;52.808;17.856;2023-06-10T00:28:26;100428.06;;;20.54
48854;BMP280;34673;52.808;17.856;2023-06-10T00:30:55;100432.75;;;20.47
48854;BMP280;34673;52.808;17.856;2023-06-10T00:33:22;100426.84;;;20.42
48854;BMP280;34673;52.808;17.856;2023-06-10T00:35:49;100439.16;;;20.42
48854;BMP280;34673;52.808;17.856;2023-06-10T00:38:17;100432.47;;;20.34
48854;BMP280;34673;52.808;17.856;2023-06-10T00:40:44;100430.78;;;20.33
48854;BMP280;34673;52.808;17.856;2023-06-10T00:43:11;100425.19;;;20.22
48854;BMP280;34673;52.808;17.856;2023-06-10T00:45:39;100436.44;;;20.24
48854;BMP280;34673;52.808;17.856;2023-06-10T00:48:06;100432.97;;;20.24
48854;BMP280;34673;52.808;17.856;2023-06-10T00:50:35;100440.94;;;20.22
48854;BMP280;34673;52.808;17.856;2023-06-10T00:53:06;100436.75;;;20.18
48854;BMP280;34673;52.808;17.856;2023-06-10T00:55:35;100433.19;;;20.19
48854;BMP280;34673;52.808;17.856;2023-06-10T00:58:03;100433.31;;;20.16
48854;BMP280;34673;52.808;17.856;2023-06-10T01:00:31;100441.84;;;20.21
48854;BMP280;34673;52.808;17.856;2023-06-10T01:03:01;100431.53;;;20.17
48854;BMP280;34673;52.808;17.856;2023-06-10T01:05:28;100438.56;;;20.16
48854;BMP280;34673;52.808;17.856;2023-06-10T01:10:30;100455.31;;;20.13
48854;BMP280;34673;52.808;17.856;2023-06-10T01:13:01;100450.94;;;20.14
48854;BMP280;34673;52.808;17.856;2023-06-10T01:15:34;100443.19;;;20.11
48854;BMP280;34673;52.808;17.856;2023-06-10T01:18:07;100454.34;;;20.16
48854;BMP280;34673;52.808;17.856;2023-06-10T01:20:43;100453.50;;;20.15
48854;BMP280;34673;52.808;17.856;2023-06-10T01:23:11;100449.09;;;20.16
48854;BMP280;34673;52.808;17.856;2023-06-10T01:25:40;100456.22;;;20.14
48854;BMP280;34673;52.808;17.856;2023-06-10T01:33:19;100447.44;;;19.95
48854;BMP280;34673;52.808;17.856;2023-06-10T01:35:48;100451.94;;;19.92
48854;BMP280;34673;52.808;17.856;2023-06-10T01:38:19;100454.75;;;19.88
48854;BMP280;34673;52.808;17.856;2023-06-10T01:40:48;100458.31;;;19.87
48854;BMP280;34673;52.808;17.856;2023-06-10T01:43:16;100461.00;;;19.85
48854;BMP280;34673;52.808;17.856;2023-06-10T01:45:44;100454.16;;;19.81
48854;BMP280;34673;52.808;17.856;2023-06-10T01:48:11;100457.84;;;19.77
48854;BMP280;34673;52.808;17.856;2023-06-10T01:50:39;100459.69;;;19.75
48854;BMP280;34673;52.808;17.856;2023-06-10T01:53:06;100462.59;;;19.69
48854;BMP280;34673;52.808;17.856;2023-06-10T01:55:33;100463.53;;;19.68
48854;BMP280;34673;52.808;17.856;2023-06-10T01:58:00;100463.59;;;19.65
48854;BMP280;34673;52.808;17.856;2023-06-10T02:00:28;100466.38;;;19.62
48854;BMP280;34673;52.808;17.856;2023-06-10T02:02:55;100471.75;;;19.59
48854;BMP280;34673;52.808;17.856;2023-06-10T02:05:22;100470.84;;;19.60
48854;BMP280;34673;52.808;17.856;2023-06-10T02:07:50;100469.97;;;19.59
48854;BMP280;34673;52.808;17.856;2023-06-10T02:10:17;100478.63;;;19.61
48854;BMP280;34673;52.808;17.856;2023-06-10T02:12:44;100475.97;;;19.63
48854;BMP280;34673;52.808;17.856;2023-06-10T02:15:12;100485.47;;;19.65
48854;BMP280;34673;52.808;17.856;2023-06-10T02:17:39;100483.03;;;19.61
48854;BMP280;34673;52.808;17.856;2023-06-10T02:20:06;100483.19;;;19.58
48854;BMP280;34673;52.808;17.856;2023-06-10T02:22:35;100486.84;;;19.54
48854;BMP280;34673;52.808;17.856;2023-06-10T02:25:03;100483.44;;;19.52
48854;BMP280;34673;52.808;17.856;2023-06-10T02:27:30;100489.47;;;19.54
48854;BMP280;34673;52.808;17.856;2023-06-10T02:29:58;100478.59;;;19.42
48854;BMP280;34673;52.808;17.856;2023-06-10T02:32:25;100495.91;;;19.46
48854;BMP280;34673;52.808;17.856;2023-06-10T02:34:53;100499.31;;;19.48
48854;BMP280;34673;52.808;17.856;2023-06-10T02:37:22;100497.88;;;19.41
48854;BMP280;34673;52.808;17.856;2023-06-10T02:39:50;100501.66;;;19.34
48854;BMP280;34673;52.808;17.856;2023-06-10T02:42:17;100494.38;;;19.20
48854;BMP280;34673;52.808;17.856;2023-06-10T02:44:45;100494.03;;;19.08
48854;BMP280;34673;52.808;17.856;2023-06-10T02:47:16;100492.47;;;19.03
48854;BMP280;34673;52.808;17.856;2023-06-10T02:49:44;100507.47;;;19.00
48854;BMP280;34673;52.808;17.856;2023-06-10T02:52:11;100510.09;;;19.00
48854;BMP280;34673;52.808;17.856;2023-06-10T02:54:39;100509.41;;;18.95
48854;BMP280;34673;52.808;17.856;2023-06-10T02:57:08;100507.81;;;18.91
48854;BMP280;34673;52.808;17.856;2023-06-10T02:59:36;100504.53;;;18.86
48854;BMP280;34673;52.808;17.856;2023-06-10T03:02:04;100513.91;;;18.91
48854;BMP280;34673;52.808;17.856;2023-06-10T03:04:38;100516.75;;;18.87
48854;BMP280;34673;52.808;17.856;2023-06-10T03:07:10;100515.97;;;18.83
48854;BMP280;34673;52.808;17.856;2023-06-10T03:09:38;100514.53;;;18.76
48854;BMP280;34673;52.808;17.856;2023-06-10T03:12:08;100519.66;;;18.79
48854;BMP280;34673;52.808;17.856;2023-06-10T03:14:42;100516.31;;;18.74
48854;BMP280;34673;52.808;17.856;2023-06-10T03:17:10;100519.66;;;18.79
48854;BMP280;34673;52.808;17.856;2023-06-10T03:19:40;100527.44;;;18.80
48854;BMP280;34673;52.808;17.856;2023-06-10T03:24:40;100522.28;;;18.79
48854;BMP280;34673;52.808;17.856;2023-06-10T03:27:10;100510.03;;;18.79
48854;BMP280;34673;52.808;17.856;2023-06-10T03:29:40;100526.59;;;18.80
48854;BMP280;34673;52.808;17.856;2023-06-10T03:32:07;100515.44;;;18.75
48854;BMP280;34673;52.808;17.856;2023-06-10T03:34:36;100517.94;;;18.78
48854;BMP280;34673;52.808;17.856;2023-06-10T03:37:04;100532.56;;;18.83
48854;BMP280;34673;52.808;17.856;2023-06-10T03:39:32;100531.41;;;18.91
48854;BMP280;34673;52.808;17.856;2023-06-10T03:42:01;100534.75;;;18.94
48854;BMP280;34673;52.808;17.856;2023-06-10T03:44:30;100543.41;;;18.96
48854;BMP280;34673;52.808;17.856;2023-06-10T03:46:57;100553.19;;;18.93
48854;BMP280;34673;52.808;17.856;2023-06-10T03:49:25;100552.34;;;18.92
48854;BMP280;34673;52.808;17.856;2023-06-10T03:51:58;100558.59;;;18.88
48854;BMP280;34673;52.808;17.856;2023-06-10T03:54:26;100560.38;;;18.88
48854;BMP280;34673;52.808;17.856;2023-06-10T03:56:53;100575.38;;;18.84
48854;BMP280;34673;52.808;17.856;2023-06-10T03:59:20;100584.00;;;18.86
48854;BMP280;34673;52.808;17.856;2023-06-10T04:01:47;100582.06;;;18.91
48854;BMP280;34673;52.808;17.856;2023-06-10T04:04:15;100591.81;;;18.88
48854;BMP280;34673;52.808;17.856;2023-06-10T04:06:45;100593.34;;;18.93
48854;BMP280;34673;52.808;17.856;2023-06-10T04:09:14;100590.84;;;18.90
48854;BMP280;34673;52.808;17.856;2023-06-10T04:11:41;100589.25;;;18.86
48854;BMP280;34673;52.808;17.856;2023-06-10T04:14:08;100600.63;;;18.87
48854;BMP280;34673;52.808;17.856;2023-06-10T04:16:37;100591.81;;;18.88
48854;BMP280;34673;52.808;17.856;2023-06-10T04:19:05;100600.38;;;18.93
48854;BMP280;34673;52.808;17.856;2023-06-10T04:21:32;100602.91;;;18.94
48854;BMP280;34673;52.808;17.856;2023-06-10T04:24:00;100597.66;;;18.94
48854;BMP280;34673;52.808;17.856;2023-06-10T04:26:27;100620.84;;;19.05
48854;BMP280;34673;52.808;17.856;2023-06-10T04:28:54;100615.56;;;19.07
48854;BMP280;34673;52.808;17.856;2023-06-10T04:31:22;100621.47;;;19.12
48854;BMP280;34673;52.808;17.856;2023-06-10T04:33:50;100611.00;;;19.12
48854;BMP280;34673;52.808;17.856;2023-06-10T04:36:17;100616.13;;;19.15
48854;BMP280;34673;52.808;17.856;2023-06-10T04:38:44;100614.16;;;19.20
48854;BMP280;34673;52.808;17.856;2023-06-10T04:41:13;100619.00;;;19.31
48854;BMP280;34673;52.808;17.856;2023-06-10T04:43:40;100623.19;;;19.35
48854;BMP280;34673;52.808;17.856;2023-06-10T04:46:07;100624.16;;;19.32
48854;BMP280;34673;52.808;17.856;2023-06-10T04:48:36;100620.81;;;19.29
48854;BMP280;34673;52.808;17.856;2023-06-10T04:51:04;100623.44;;;19.29
48854;BMP280;34673;52.808;17.856;2023-06-10T04:53:32;100619.28;;;19.23
48854;BMP280;34673;52.808;17.856;2023-06-10T04:55:59;100635.81;;;19.25
48854;BMP280;34673;52.808;17.856;2023-06-10T04:58:26;100634.16;;;19.22
48854;BMP280;34673;52.808;17.856;2023-06-10T05:00:53;100641.84;;;19.27
48854;BMP280;34673;52.808;17.856;2023-06-10T05:03:21;100638.31;;;19.28
48854;BMP280;34673;52.808;17.856;2023-06-10T05:05:48;100649.28;;;19.38
48854;BMP280;34673;52.808;17.856;2023-06-10T05:08:15;100646.59;;;19.39
48854;BMP280;34673;52.808;17.856;2023-06-10T05:10:42;100644.66;;;19.44
48854;BMP280;34673;52.808;17.856;2023-06-10T05:13:09;100646.22;;;19.48
48854;BMP280;34673;52.808;17.856;2023-06-10T05:15:37;100649.31;;;19.60
48854;BMP280;34673;52.808;17.856;2023-06-10T05:18:04;100653.94;;;19.75
48854;BMP280;34673;52.808;17.856;2023-06-10T05:20:31;100650.00;;;19.85
48854;BMP280;34673;52.808;17.856;2023-06-10T05:22:58;100646.47;;;19.86
48854;BMP280;34673;52.808;17.856;2023-06-10T05:25:28;100654.75;;;19.98
48854;BMP280;34673;52.808;17.856;2023-06-10T05:27:57;100658.91;;;20.03
48854;BMP280;34673;52.808;17.856;2023-06-10T05:30:25;100661.16;;;20.11
48854;BMP280;34673;52.808;17.856;2023-06-10T05:32:52;100665.06;;;20.23
48854;BMP280;34673;52.808;17.856;2023-06-10T05:35:20;100653.03;;;20.37
48854;BMP280;34673;52.808;17.856;2023-06-10T05:37:47;100652.75;;;20.44
48854;BMP280;34673;52.808;17.856;2023-06-10T05:40:14;100659.44;;;20.51
48854;BMP280;34673;52.808;17.856;2023-06-10T05:42:41;100661.06;;;20.55
48854;BMP280;34673;52.808;17.856;2023-06-10T05:45:09;100666.19;;;20.58
48854;BMP280;34673;52.808;17.856;2023-06-10T05:47:36;100660.28;;;20.51
48854;BMP280;34673;52.808;17.856;2023-06-10T05:50:04;100669.25;;;20.47
48854;BMP280;34673;52.808;17.856;2023-06-10T05:52:37;100670.09;;;20.48
48854;BMP280;34673;52.808;17.856;2023-06-10T05:55:07;100670.09;;;20.48
48854;BMP280;34673;52.808;17.856;2023-06-10T05:57:35;100663.91;;;20.49
48854;BMP280;34673;52.808;17.856;2023-06-10T06:00:03;100666.41;;;20.52
48854;BMP280;34673;52.808;17.856;2023-06-10T06:02:37;100669.00;;;20.53
48854;BMP280;34673;52.808;17.856;2023-06-10T06:05:05;100672.34;;;20.57
48854;BMP280;34673;52.808;17.856;2023-06-10T06:07:33;100677.53;;;20.58
48854;BMP280;34673;52.808;17.856;2023-06-10T06:10:00;100670.16;;;20.67
48854;BMP280;34673;52.808;17.856;2023-06-10T06:12:27;100674.94;;;20.77
48854;BMP280;34673;52.808;17.856;2023-06-10T06:14:54;100675.16;;;20.92
48854;BMP280;34673;52.808;17.856;2023-06-10T06:17:21;100669.84;;;20.93
48854;BMP280;34673;52.808;17.856;2023-06-10T06:19:49;100669.47;;;21.01
48854;BMP280;34673;52.808;17.856;2023-06-10T06:22:16;100671.97;;;21.04
48854;BMP280;34673;52.808;17.856;2023-06-10T06:24:47;100674.59;;;21.04
48854;BMP280;34673;52.808;17.856;2023-06-10T06:27:14;100663.78;;;21.10
48854;BMP280;34673;52.808;17.856;2023-06-10T06:29:42;100668.75;;;21.16
48854;BMP280;34673;52.808;17.856;2023-06-10T06:32:10;100672.31;;;21.15
48854;BMP280;34673;52.808;17.856;2023-06-10T06:34:37;100672.16;;;21.18
48854;BMP280;34673;52.808;17.856;2023-06-10T06:37:04;100659.22;;;21.14
48854;BMP280;34673;52.808;17.856;2023-06-10T06:39:34;100667.84;;;21.17
48854;BMP280;34673;52.808;17.856;2023-06-10T06:42:01;100665.19;;;21.55
48854;BMP280;34673;52.808;17.856;2023-06-10T06:44:46;100669.84;;;22.02
48854;BMP280;34673;52.808;17.856;2023-06-10T06:47:13;100661.00;;;22.38
48854;BMP280;34673;52.808;17.856;2023-06-10T06:49:41;100662.63;;;22.74
48854;BMP280;34673;52.808;17.856;2023-06-10T06:52:08;100667.81;;;23.09
48854;BMP280;34673;52.808;17.856;2023-06-10T06:54:35;100670.38;;;23.26
48854;BMP280;34673;52.808;17.856;2023-06-10T06:57:03;100663.31;;;22.93
48854;BMP280;34673;52.808;17.856;2023-06-10T06:59:30;100669.44;;;22.78
48854;BMP280;34673;52.808;17.856;2023-06-10T07:01:57;100667.59;;;22.80
48854;BMP280;34673;52.808;17.856;2023-06-10T07:04:24;100674.88;;;22.91
48854;BMP280;34673;52.808;17.856;2023-06-10T07:06:52;100679.03;;;22.96
48854;BMP280;34673;52.808;17.856;2023-06-10T07:09:19;100685.00;;;23.16
48854;BMP280;34673;52.808;17.856;2023-06-10T07:11:46;100672.91;;;23.43
48854;BMP280;34673;52.808;17.856;2023-06-10T07:14:13;100673.06;;;23.56
48854;BMP280;34673;52.808;17.856;2023-06-10T07:16:40;100679.00;;;23.60
48854;BMP280;34673;52.808;17.856;2023-06-10T07:19:08;100676.97;;;23.65
48854;BMP280;34673;52.808;17.856;2023-06-10T07:21:35;100679.31;;;23.85
48854;BMP280;34673;52.808;17.856;2023-06-10T07:24:03;100671.97;;;23.91
48854;BMP280;34673;52.808;17.856;2023-06-10T07:26:31;100680.31;;;23.99
48854;BMP280;34673;52.808;17.856;2023-06-10T07:28:58;100676.38;;;24.06
48854;BMP280;34673;52.808;17.856;2023-06-10T07:31:25;100684.22;;;24.52
48854;BMP280;34673;52.808;17.856;2023-06-10T07:33:52;100683.50;;;24.91
48854;BMP280;34673;52.808;17.856;2023-06-10T07:36:20;100678.13;;;25.22
48854;BMP280;34673;52.808;17.856;2023-06-10T07:38:47;100682.56;;;25.48
48854;BMP280;34673;52.808;17.856;2023-06-10T07:41:14;100673.00;;;25.73
48854;BMP280;34673;52.808;17.856;2023-06-10T07:43:45;100684.31;;;25.89
48854;BMP280;34673;52.808;17.856;2023-06-10T07:46:12;100686.91;;;26.03
48854;BMP280;34673;52.808;17.856;2023-06-10T07:48:39;100679.94;;;26.28
48854;BMP280;34673;52.808;17.856;2023-06-10T07:51:06;100692.00;;;26.32
48854;BMP280;34673;52.808;17.856;2023-06-10T07:53:34;100690.31;;;26.31
48854;BMP280;34673;52.808;17.856;2023-06-10T07:56:01;100695.50;;;26.20
48854;BMP280;34673;52.808;17.856;2023-06-10T07:58:28;100695.56;;;26.05
48854;BMP280;34673;52.808;17.856;2023-06-10T08:00:55;100689.22;;;25.95
48854;BMP280;34673;52.808;17.856;2023-06-10T08:03:22;100680.16;;;26.25
48854;BMP280;34673;52.808;17.856;2023-06-10T08:05:50;100683.03;;;26.60
48854;BMP280;34673;52.808;17.856;2023-06-10T08:08:17;100688.63;;;26.81
48854;BMP280;34673;52.808;17.856;2023-06-10T08:10:44;100692.63;;;27.00
48854;BMP280;34673;52.808;17.856;2023-06-10T08:13:11;100690.72;;;27.02
48854;BMP280;34673;52.808;17.856;2023-06-10T08:15:39;100690.78;;;27.13
48854;BMP280;34673;52.808;17.856;2023-06-10T08:18:06;100684.50;;;27.14
48854;BMP280;34673;52.808;17.856;2023-06-10T08:20:33;100690.22;;;27.33
48854;BMP280;34673;52.808;17.856;2023-06-10T08:23:01;100683.94;;;27.58
48854;BMP280;34673;52.808;17.856;2023-06-10T08:25:28;100680.94;;;27.63
48854;BMP280;34673;52.808;17.856;2023-06-10T08:27:55;100650.44;;;27.45
48854;BMP280;34673;52.808;17.856;2023-06-10T08:30:24;100691.34;;;27.66
48854;BMP280;34673;52.808;17.856;2023-06-10T08:32:51;100687.50;;;27.70
48854;BMP280;34673;52.808;17.856;2023-06-10T08:35:19;100680.03;;;27.75
48854;BMP280;34673;52.808;17.856;2023-06-10T08:37:46;100686.63;;;27.82
48854;BMP280;34673;52.808;17.856;2023-06-10T08:40:13;100672.13;;;27.87
48854;BMP280;34673;52.808;17.856;2023-06-10T08:42:47;100683.00;;;27.83
48854;BMP280;34673;52.808;17.856;2023-06-10T08:45:17;100681.72;;;27.76
48854;BMP280;34673;52.808;17.856;2023-06-10T08:47:50;100679.25;;;27.62
48854;BMP280;34673;52.808;17.856;2023-06-10T08:50:21;100677.84;;;27.69
48854;BMP280;34673;52.808;17.856;2023-06-10T08:52:51;100673.84;;;27.88
48854;BMP280;34673;52.808;17.856;2023-06-10T08:55:41;100687.03;;;28.12
48854;BMP280;34673;52.808;17.856;2023-06-10T08:58:09;100668.59;;;28.33
48854;BMP280;34673;52.808;17.856;2023-06-10T09:00:38;100670.44;;;28.43
48854;BMP280;34673;52.808;17.856;2023-06-10T09:03:05;100670.84;;;28.50
48854;BMP280;34673;52.808;17.856;2023-06-10T09:05:36;100682.19;;;28.63
48854;BMP280;34673;52.808;17.856;2023-06-10T09:08:06;100668.88;;;28.52
48854;BMP280;34673;52.808;17.856;2023-06-10T09:10:34;100680.47;;;28.40
48854;BMP280;34673;52.808;17.856;2023-06-10T09:13:01;100670.75;;;28.27
48854;BMP280;34673;52.808;17.856;2023-06-10T09:15:28;100671.72;;;28.15
48854;BMP280;34673;52.808;17.856;2023-06-10T09:17:56;100677.53;;;28.20
48854;BMP280;34673;52.808;17.856;2023-06-10T09:20:23;100677.06;;;28.38
48854;BMP280;34673;52.808;17.856;2023-06-10T09:22:51;100667.84;;;28.42
48854;BMP280;34673;52.808;17.856;2023-06-10T09:25:18;100680.25;;;28.65
48854;BMP280;34673;52.808;17.856;2023-06-10T09:27:47;100677.13;;;28.83
48854;BMP280;34673;52.808;17.856;2023-06-10T09:30:28;100664.13;;;29.01
48854;BMP280;34673;52.808;17.856;2023-06-10T09:32:58;100676.59;;;29.11
48854;BMP280;34673;52.808;17.856;2023-06-10T09:35:27;100681.44;;;29.29
48854;BMP280;34673;52.808;17.856;2023-06-10T09:37:56;100684.09;;;29.29
48854;BMP280;34673;52.808;17.856;2023-06-10T09:40:24;100678.75;;;29.29
48854;BMP280;34673;52.808;17.856;2023-06-10T09:42:56;100678.44;;;29.54
48854;BMP280;34673;52.808;17.856;2023-06-10T09:45:29;100677.69;;;29.64
48854;BMP280;34673;52.808;17.856;2023-06-10T09:47:57;100676.50;;;29.56
48854;BMP280;34673;52.808;17.856;2023-06-10T09:50:24;100676.13;;;29.50
48854;BMP280;34673;52.808;17.856;2023-06-10T09:52:52;100690.69;;;29.46
48854;BMP280;34673;52.808;17.856;2023-06-10T09:55:20;100675.28;;;29.49
48854;BMP280;34673;52.808;17.856;2023-06-10T09:57:49;100683.75;;;29.54
48854;BMP280;34673;52.808;17.856;2023-06-10T10:00:16;100697.06;;;29.66
48854;BMP280;34673;52.808;17.856;2023-06-10T10:02:49;100687.16;;;29.56
48854;BMP280;34673;52.808;17.856;2023-06-10T10:05:20;100689.34;;;29.51
48854;BMP280;34673;52.808;17.856;2023-06-10T10:07:49;100683.44;;;29.36
48854;BMP280;34673;52.808;17.856;2023-06-10T10:10:18;100695.66;;;29.39
48854;BMP280;34673;52.808;17.856;2023-06-10T10:12:47;100688.81;;;29.69
48854;BMP280;34673;52.808;17.856;2023-06-10T10:15:17;100685.56;;;29.65
48854;BMP280;34673;52.808;17.856;2023-06-10T10:20:19;100687.84;;;29.70
48854;BMP280;34673;52.808;17.856;2023-06-10T10:22:49;100687.88;;;29.47
48854;BMP280;34673;52.808;17.856;2023-06-10T10:25:23;100688.16;;;29.44
48854;BMP280;34673;52.808;17.856;2023-06-10T10:27:52;100678.94;;;29.48
48854;BMP280;34673;52.808;17.856;2023-06-10T10:30:23;100683.50;;;29.57
48854;BMP280;34673;52.808;17.856;2023-06-10T10:33:02;100681.81;;;29.56
48854;BMP280;34673;52.808;17.856;2023-06-10T10:35:36;100684.28;;;29.48
48854;BMP280;34673;52.808;17.856;2023-06-10T10:38:05;100680.47;;;29.62
48854;BMP280;34673;52.808;17.856;2023-06-10T10:40:33;100684.72;;;29.65
48854;BMP280;34673;52.808;17.856;2023-06-10T10:43:01;100683.97;;;29.63
48854;BMP280;34673;52.808;17.856;2023-06-10T10:45:29;100687.06;;;29.79
48854;BMP280;34673;52.808;17.856;2023-06-10T10:47:56;100685.19;;;29.91
48854;BMP280;34673;52.808;17.856;2023-06-10T10:50:28;100689.41;;;29.93
48854;BMP280;34673;52.808;17.856;2023-06-10T10:53:03;100687.06;;;29.79
48854;BMP280;34673;52.808;17.856;2023-06-10T10:55:31;100678.09;;;29.80
48854;BMP280;34673;52.808;17.856;2023-06-10T10:58:06;100688.09;;;29.55
48854;BMP280;34673;52.808;17.856;2023-06-10T11:00:35;100674.72;;;29.78
48854;BMP280;34673;52.808;17.856;2023-06-10T11:05:39;100679.38;;;29.97
48854;BMP280;34673;52.808;17.856;2023-06-10T11:08:08;100686.06;;;29.91
48854;BMP280;34673;52.808;17.856;2023-06-10T11:10:41;100679.84;;;29.91
48854;BMP280;34673;52.808;17.856;2023-06-10T11:13:19;100683.81;;;29.96
48854;BMP280;34673;52.808;17.856;2023-06-10T11:15:48;100677.59;;;29.86
48854;BMP280;34673;52.808;17.856;2023-06-10T11:18:35;100671.59;;;29.94
48854;BMP280;34673;52.808;17.856;2023-06-10T11:21:05;100668.09;;;29.93
48854;BMP280;34673;52.808;17.856;2023-06-10T11:23:34;100676.16;;;29.82
48854;BMP280;34673;52.808;17.856;2023-06-10T11:29:00;100666.06;;;29.65
48854;BMP280;34673;52.808;17.856;2023-06-10T11:31:33;100672.00;;;29.89
48854;BMP280;34673;52.808;17.856;2023-06-10T11:34:05;100666.22;;;30.05
48854;BMP280;34673;52.808;17.856;2023-06-10T11:36:36;100659.97;;;30.16
48854;BMP280;34673;52.808;17.856;2023-06-10T11:39:05;100662.38;;;30.19
48854;BMP280;34673;52.808;17.856;2023-06-10T11:41:34;100672.13;;;30.09
48854;BMP280;34673;52.808;17.856;2023-06-10T11:44:03;100673.75;;;29.79
48854;BMP280;34673;52.808;17.856;2023-06-10T11:46:33;100671.16;;;29.56
48854;BMP280;34673;52.808;17.856;2023-06-10T11:49:01;100667.75;;;29.54
48854;BMP280;34673;52.808;17.856;2023-06-10T11:51:36;100666.56;;;29.47
48854;BMP280;34673;52.808;17.856;2023-06-10T11:54:08;100666.31;;;29.50
48854;BMP280;34673;52.808;17.856;2023-06-10T11:56:35;100669.19;;;29.58
48854;BMP280;34673;52.808;17.856;2023-06-10T11:59:07;100659.28;;;29.49
48854;BMP280;34673;52.808;17.856;2023-06-10T12:01:36;100661.44;;;29.55
48854;BMP280;34673;52.808;17.856;2023-06-10T12:04:11;100655.44;;;29.42
48854;BMP280;34673;52.808;17.856;2023-06-10T12:06:45;100660.97;;;29.50
48854;BMP280;34673;52.808;17.856;2023-06-10T12:09:28;100664.88;;;29.46
48854;BMP280;34673;52.808;17.856;2023-06-10T12:12:03;100658.19;;;29.52
48854;BMP280;34673;52.808;17.856;2023-06-10T12:20:04;100658.28;;;29.62
48854;BMP280;34673;52.808;17.856;2023-06-10T12:22:39;100661.44;;;29.67
48854;BMP280;34673;52.808;17.856;2023-06-10T12:25:08;100661.25;;;29.47
48854;BMP280;34673;52.808;17.856;2023-06-10T12:27:37;100657.19;;;29.32
48854;BMP280;34673;52.808;17.856;2023-06-10T12:30:05;100664.72;;;29.27
48854;BMP280;34673;52.808;17.856;2023-06-10T12:35:05;100666.78;;;29.12
48854;BMP280;34673;52.808;17.856;2023-06-10T12:37:33;100669.22;;;29.04
48854;BMP280;34673;52.808;17.856;2023-06-10T12:40:08;100669.34;;;29.13
48854;BMP280;34673;52.808;17.856;2023-06-10T12:42:37;100664.97;;;29.12
48854;BMP280;34673;52.808;17.856;2023-06-10T12:45:05;100663.78;;;29.05
48854;BMP280;34673;52.808;17.856;2023-06-10T12:47:37;100665.69;;;29.14
48854;BMP280;34673;52.808;17.856;2023-06-10T12:50:06;100665.69;;;29.14
48854;BMP280;34673;52.808;17.856;2023-06-10T12:52:33;100655.41;;;29.21
48854;BMP280;34673;52.808;17.856;2023-06-10T12:55:00;100660.81;;;29.31
48854;BMP280;34673;52.808;17.856;2023-06-10T12:57:28;100646.56;;;29.09
48854;BMP280;34673;52.808;17.856;2023-06-10T12:59:56;100655.53;;;29.08
48854;BMP280;34673;52.808;17.856;2023-06-10T13:02:31;100643.66;;;29.12
48854;BMP280;34673;52.808;17.856;2023-06-10T13:04:58;100643.69;;;28.90
48854;BMP280;34673;52.808;17.856;2023-06-10T13:07:26;100647.34;;;28.66
48854;BMP280;34673;52.808;17.856;2023-06-10T13:09:53;100641.06;;;28.45
48854;BMP280;34673;52.808;17.856;2023-06-10T13:12:20;100645.16;;;28.49
48854;BMP280;34673;52.808;17.856;2023-06-10T13:15:04;100635.50;;;28.48
48854;BMP280;34673;52.808;17.856;2023-06-10T13:17:32;100633.56;;;28.50
48854;BMP280;34673;52.808;17.856;2023-06-10T13:20:03;100644.81;;;28.54
48854;BMP280;34673;52.808;17.856;2023-06-10T13:22:32;100640.56;;;28.51
48854;BMP280;34673;52.808;17.856;2023-06-10T13:25:05;100637.41;;;28.57
48854;BMP280;34673;52.808;17.856;2023-06-10T13:27:35;100635.00;;;28.54
48854;BMP280;34673;52.808;17.856;2023-06-10T13:30:06;100634.66;;;28.59
48854;BMP280;34673;52.808;17.856;2023-06-10T13:32:34;100636.94;;;28.52
48854;BMP280;34673;52.808;17.856;2023-06-10T13:35:02;100635.25;;;28.51
48854;BMP280;34673;52.808;17.856;2023-06-10T13:37:31;100639.34;;;28.44
48854;BMP280;34673;52.808;17.856;2023-06-10T13:40:01;100638.34;;;28.34
48854;BMP280;34673;52.808;17.856;2023-06-10T13:42:29;100639.06;;;28.24
48854;BMP280;34673;52.808;17.856;2023-06-10T13:44:56;100631.06;;;28.02
48854;BMP280;34673;52.808;17.856;2023-06-10T13:47:24;100644.09;;;27.82
48854;BMP280;34673;52.808;17.856;2023-06-10T13:49:52;100638.81;;;27.70
48854;BMP280;34673;52.808;17.856;2023-06-10T13:52:19;100633.56;;;27.57
48854;BMP280;34673;52.808;17.856;2023-06-10T13:54:46;100645.78;;;27.35
48854;BMP280;34673;52.808;17.856;2023-06-10T13:57:14;100640.47;;;27.35
48854;BMP280;34673;52.808;17.856;2023-06-10T13:59:41;100641.94;;;27.39
48854;BMP280;34673;52.808;17.856;2023-06-10T14:02:08;100632.53;;;27.47
48854;BMP280;34673;52.808;17.856;2023-06-10T14:04:36;100646.19;;;27.42
48854;BMP280;34673;52.808;17.856;2023-06-10T14:07:03;100650.03;;;27.38
48854;BMP280;34673;52.808;17.856;2023-06-10T14:09:30;100630.31;;;27.29
48854;BMP280;34673;52.808;17.856;2023-06-10T14:11:58;100646.69;;;27.23
48854;BMP280;34673;52.808;17.856;2023-06-10T14:14:25;100639.91;;;27.19
48854;BMP280;34673;52.808;17.856;2023-06-10T14:16:52;100632.91;;;27.18
48854;BMP280;34673;52.808;17.856;2023-06-10T14:19:19;100625.38;;;27.12